Time;durP1;ratioP1;P1;durP2;ratioP2;P2;SDS_P1;SDS_P2;PMS_P1;PMS_P2;Temp;Humidity;BMP_temperature;BMP_pressure;BME280_temperature;BME280_humidity;BME280_pressure;Samples;Min_cycle;Max_cycle;Signal;HPM_P1;HPM_P2
2023/10/16 00:00:45;;;;;;;10.33;6.47;;;5.20;99.90;;;;;;5029425;28;20261;-72
2023/10/16 00:03:17;;;;;;;12.07;7.77;;;5.20;99.90;;;;;;5031053;28;20171;-71
2023/10/16 00:05:49;;;;;;;15.37;8.27;;;5.20;99.90;;;;;;5030940;28;20171;-71
2023/10/16 00:08:16;;;;;;;12.97;8.23;;;5.30;99.90;;;;;;5030927;28;20171;-71
2023/10/16 00:10:52;;;;;;;11.83;8.10;;;5.30;99.90;;;;;;5031023;28;20191;-71
2023/10/16 00:13:23;;;;;;;8.40;7.70;;;5.30;99.90;;;;;;5030993;28;20170;-71
2023/10/16 00:15:49;;;;;;;9.10;7.53;;;5.30;99.90;;;;;;5030983;28;20233;-71
2023/10/16 00:18:22;;;;;;;14.17;8.40;;;5.30;99.90;;;;;;5030894;28;20203;-71
2023/10/16 00:20:49;;;;;;;12.40;8.00;;;5.30;99.90;;;;;;5030856;28;20223;-71
2023/10/16 00:23:15;;;;;;;11.37;7.80;;;5.20;99.90;;;;;;5019687;28;20715;-71
2023/10/16 00:25:43;;;;;;;11.70;8.07;;;5.20;99.90;;;;;;5011051;28;20268;-71
2023/10/16 00:28:09;;;;;;;10.63;8.00;;;5.20;99.90;;;;;;5021597;28;20179;-71
2023/10/16 00:30:36;;;;;;;9.80;8.37;;;5.20;99.90;;;;;;5030682;28;20206;-71
2023/10/16 00:33:04;;;;;;;8.87;7.97;;;5.20;99.90;;;;;;5030616;28;20179;-71
2023/10/16 00:35:30;;;;;;;9.70;8.03;;;5.20;99.90;;;;;;5030800;28;20179;-71
2023/10/16 00:37:56;;;;;;;13.03;9.10;;;5.10;99.90;;;;;;5030247;28;20230;-72
2023/10/16 00:40:35;;;;;;;11.17;9.03;;;5.10;99.90;;;;;;5030475;28;20235;-71
2023/10/16 00:43:20;;;;;;;11.77;8.60;;;5.10;99.90;;;;;;5011058;28;20179;-71
2023/10/16 00:45:50;;;;;;;10.23;8.50;;;5.20;99.90;;;;;;5010756;28;20539;-71
2023/10/16 00:48:17;;;;;;;9.37;8.50;;;5.10;99.90;;;;;;5010834;28;20598;-71
2023/10/16 00:50:49;;;;;;;9.57;8.57;;;5.10;99.90;;;;;;5012606;28;20202;-71
2023/10/16 00:53:26;;;;;;;14.60;8.90;;;5.00;99.90;;;;;;5014550;28;20655;-72
2023/10/16 00:55:55;;;;;;;11.60;8.30;;;5.00;99.90;;;;;;5014438;28;20728;-71
2023/10/16 00:58:21;;;;;;;16.23;9.70;;;5.00;99.90;;;;;;5014115;28;20204;-73
2023/10/16 01:00:48;;;;;;;12.13;9.80;;;5.00;99.90;;;;;;5014212;28;20191;-71
2023/10/16 01:03:16;;;;;;;11.63;9.13;;;4.90;99.90;;;;;;5014064;28;20207;-71
2023/10/16 01:05:42;;;;;;;11.13;9.50;;;4.90;99.90;;;;;;5012797;28;20199;-71
2023/10/16 01:08:09;;;;;;;12.83;9.33;;;4.90;99.90;;;;;;5014031;28;20176;-72
2023/10/16 01:10:37;;;;;;;11.13;9.63;;;4.80;99.90;;;;;;5027895;28;20559;-71
2023/10/16 01:13:08;;;;;;;10.20;9.20;;;4.80;99.90;;;;;;5033688;28;20765;-71
2023/10/16 01:15:34;;;;;;;11.23;9.30;;;4.80;99.90;;;;;;5033726;28;20174;-71
2023/10/16 01:18:00;;;;;;;13.80;10.00;;;4.70;99.90;;;;;;5026345;28;20208;-71
2023/10/16 01:20:25;;;;;;;13.30;10.17;;;4.70;99.90;;;;;;5014018;28;20192;-71
2023/10/16 01:22:52;;;;;;;16.10;10.20;;;4.70;99.90;;;;;;5013770;28;20648;-71
2023/10/16 01:25:18;;;;;;;13.57;9.80;;;4.60;99.90;;;;;;5013945;28;20714;-72
2023/10/16 01:27:44;;;;;;;13.47;10.63;;;4.60;99.90;;;;;;5013726;28;20208;-71
2023/10/16 01:30:10;;;;;;;13.87;11.23;;;4.60;99.90;;;;;;5014684;28;20675;-71
2023/10/16 01:32:39;;;;;;;14.47;11.20;;;4.60;99.90;;;;;;5013508;28;20172;-71
2023/10/16 01:35:08;;;;;;;17.93;11.67;;;4.60;99.90;;;;;;5013486;28;20177;-72
2023/10/16 01:37:38;;;;;;;15.77;11.97;;;4.60;99.90;;;;;;5013246;28;20282;-72
2023/10/16 01:40:25;;;;;;;16.27;12.03;;;4.60;99.90;;;;;;5013349;28;20579;-71
2023/10/16 01:42:54;;;;;;;19.20;12.73;;;4.60;99.90;;;;;;5024668;28;20179;-72
2023/10/16 01:45:20;;;;;;;14.87;13.13;;;4.60;99.90;;;;;;5033170;28;20198;-71
2023/10/16 01:47:47;;;;;;;20.40;12.10;;;4.60;99.90;;;;;;5033235;28;20167;-71
2023/10/16 01:50:20;;;;;;;17.53;12.87;;;4.60;99.90;;;;;;5033148;28;20346;-71
2023/10/16 01:52:49;;;;;;;14.00;12.17;;;4.60;99.90;;;;;;5033099;28;20178;-72
2023/10/16 01:55:18;;;;;;;16.47;12.33;;;4.60;99.90;;;;;;5032881;28;20650;-72
2023/10/16 01:57:44;;;;;;;17.83;13.53;;;4.60;99.90;;;;;;5014797;28;20689;-71
2023/10/16 02:00:16;;;;;;;17.53;13.93;;;4.60;99.90;;;;;;5013009;28;20184;-72
2023/10/16 02:02:42;;;;;;;16.47;12.50;;;4.60;99.90;;;;;;5043084;28;20176;-71
2023/10/16 02:05:10;;;;;;;13.43;10.60;;;4.60;99.90;;;;;;5044737;28;20180;-72
2023/10/16 02:07:42;;;;;;;12.50;9.60;;;4.60;99.90;;;;;;5012741;28;20223;-72
2023/10/16 02:10:20;;;;;;;16.53;9.20;;;4.60;99.90;;;;;;5013033;28;20204;-72
2023/10/16 02:12:45;;;;;;;11.60;8.20;;;4.50;99.90;;;;;;5014027;28;20172;-71
2023/10/16 02:15:14;;;;;;;9.50;8.43;;;4.40;99.90;;;;;;5011588;28;20243;-71
2023/10/16 02:17:42;;;;;;;11.17;8.87;;;4.30;99.90;;;;;;5013015;28;20239;-72
2023/10/16 02:20:11;;;;;;;13.90;8.33;;;4.30;99.90;;;;;;5013068;28;20219;-72
2023/10/16 02:22:39;;;;;;;11.70;8.47;;;4.20;99.90;;;;;;5012735;28;20248;-71
2023/10/16 02:25:08;;;;;;;9.70;8.67;;;4.10;99.90;;;;;;5012741;28;20672;-71
2023/10/16 02:27:35;;;;;;;13.87;8.50;;;4.10;99.90;;;;;;5012746;28;20175;-72
2023/10/16 02:32:49;;;;;;;12.63;10.77;;;3.90;99.90;;;;;;5012946;28;20603;-72
2023/10/16 02:35:15;;;;;;;14.13;11.30;;;3.90;99.90;;;;;;5012587;28;20183;-72
2023/10/16 02:37:41;;;;;;;13.67;9.90;;;3.90;99.90;;;;;;5012506;28;20200;-72
2023/10/16 02:40:11;;;;;;;11.50;10.33;;;3.90;99.90;;;;;;5012426;28;20204;-72
2023/10/16 02:42:40;;;;;;;12.77;10.00;;;3.90;99.90;;;;;;5012905;28;20168;-72
2023/10/16 02:45:23;;;;;;;13.13;10.60;;;3.90;99.90;;;;;;5014269;28;20568;-72
2023/10/16 02:47:49;;;;;;;14.93;10.30;;;3.90;99.90;;;;;;5012709;28;20258;-72
2023/10/16 02:50:15;;;;;;;13.67;10.83;;;3.90;99.90;;;;;;5012513;28;20327;-72
2023/10/16 02:52:41;;;;;;;12.63;10.87;;;3.90;99.90;;;;;;5012262;28;20183;-71
2023/10/16 02:55:07;;;;;;;15.43;9.97;;;3.90;99.90;;;;;;5012103;28;20176;-72
2023/10/16 02:57:33;;;;;;;15.17;11.50;;;3.90;99.90;;;;;;5012326;28;20231;-72
2023/10/16 02:59:58;;;;;;;19.83;11.40;;;3.90;99.90;;;;;;5029565;28;20196;-72
2023/10/16 03:02:27;;;;;;;13.43;10.30;;;3.90;99.90;;;;;;5012153;28;20286;-73
2023/10/16 03:04:54;;;;;;;17.57;11.73;;;3.90;99.90;;;;;;5011994;28;20176;-72
2023/10/16 03:07:25;;;;;;;11.37;10.17;;;3.80;99.90;;;;;;5011859;28;20172;-71
2023/10/16 03:09:51;;;;;;;17.97;11.40;;;3.80;99.90;;;;;;5012404;28;20192;-72
2023/10/16 03:12:19;;;;;;;14.20;10.70;;;3.80;99.90;;;;;;5014692;28;20191;-72
2023/10/16 03:14:45;;;;;;;12.33;10.10;;;3.80;99.90;;;;;;5024593;28;20176;-72
2023/10/16 03:17:25;;;;;;;15.07;10.83;;;3.90;99.90;;;;;;5011876;28;20234;-72
2023/10/16 03:19:55;;;;;;;17.93;11.50;;;3.80;99.90;;;;;;5012018;28;20188;-72
2023/10/16 03:22:21;;;;;;;14.60;10.90;;;3.80;99.90;;;;;;5012104;28;20303;-72
2023/10/16 03:24:47;;;;;;;17.43;11.33;;;3.90;99.90;;;;;;5011698;28;20179;-72
2023/10/16 03:27:27;;;;;;;15.23;11.30;;;3.80;99.90;;;;;;5011858;28;20267;-72
2023/10/16 03:29:54;;;;;;;12.73;11.47;;;3.80;99.90;;;;;;5021184;28;20226;-73
2023/10/16 03:32:20;;;;;;;11.97;10.67;;;3.70;99.90;;;;;;5031548;28;20175;-72
2023/10/16 03:34:45;;;;;;;16.67;10.87;;;3.70;99.90;;;;;;5031266;28;20179;-72
2023/10/16 03:37:13;;;;;;;13.43;10.53;;;3.60;99.90;;;;;;5030995;28;20670;-72
2023/10/16 03:39:39;;;;;;;13.47;10.63;;;3.60;99.90;;;;;;5031325;28;20295;-72
2023/10/16 03:42:11;;;;;;;14.23;9.70;;;3.50;99.90;;;;;;5031418;28;20242;-72
2023/10/16 03:44:38;;;;;;;10.77;8.97;;;3.50;99.90;;;;;;5015708;28;20567;-71
2023/10/16 03:47:06;;;;;;;13.77;10.23;;;3.50;99.90;;;;;;5011599;28;20659;-71
2023/10/16 03:49:31;;;;;;;13.70;11.23;;;3.40;99.90;;;;;;5011612;28;20191;-70
2023/10/16 03:51:57;;;;;;;14.60;10.83;;;3.30;99.90;;;;;;5011450;28;20180;-70
2023/10/16 03:54:35;;;;;;;18.93;10.97;;;3.40;99.90;;;;;;5011400;28;20579;-71
2023/10/16 03:57:01;;;;;;;11.63;10.00;;;3.40;99.90;;;;;;5011475;28;20179;-71
2023/10/16 03:59:30;;;;;;;12.70;11.37;;;3.40;99.90;;;;;;5012815;28;20196;-70
2023/10/16 04:01:56;;;;;;;13.47;10.87;;;3.40;99.90;;;;;;5011619;28;20255;-70
2023/10/16 04:04:25;;;;;;;18.37;10.90;;;3.40;99.90;;;;;;5011315;28;20314;-70
2023/10/16 04:06:57;;;;;;;11.93;10.63;;;3.40;99.90;;;;;;5011558;28;20176;-71
2023/10/16 04:09:29;;;;;;;14.97;11.67;;;3.40;99.90;;;;;;5011393;28;20672;-71
2023/10/16 04:11:56;;;;;;;17.93;11.13;;;3.40;99.90;;;;;;5011594;28;20547;-70
2023/10/16 04:14:44;;;;;;;19.67;11.37;;;3.40;99.90;;;;;;5011174;28;20168;-70
2023/10/16 04:17:11;;;;;;;16.47;11.60;;;3.40;99.90;;;;;;5023678;28;20187;-71
2023/10/16 04:19:47;;;;;;;14.70;10.83;;;3.40;99.90;;;;;;5031197;28;20290;-71
2023/10/16 04:22:17;;;;;;;14.30;11.07;;;3.40;99.90;;;;;;5031083;28;20694;-71
2023/10/16 04:24:46;;;;;;;15.63;10.10;;;3.40;99.90;;;;;;5031186;28;20249;-70
2023/10/16 04:32:40;;;;;;;13.63;11.60;;;3.40;99.90;;;;;;5012838;28;20192;-71
2023/10/16 04:38:27;;;;;;;17.73;11.57;;;3.40;99.90;;;;;;5014582;28;20597;-70
2023/10/16 04:46:54;;;;;;;14.90;11.57;;;3.30;99.90;;;;;;5030046;28;20175;-71
2023/10/16 04:49:14;;;;;;;19.13;11.17;;;3.30;99.90;;;;;;5034243;28;20654;-70
2023/10/16 04:51:52;;;;;;;17.73;11.47;;;3.30;99.90;;;;;;5033525;28;20699;-70
2023/10/16 04:54:27;;;;;;;15.17;10.93;;;3.30;99.90;;;;;;5034400;28;20635;-71
2023/10/16 04:59:37;;;;;;;13.10;11.43;;;3.20;99.90;;;;;;5034237;28;20195;-71
2023/10/16 05:02:16;;;;;;;14.97;11.40;;;3.20;99.90;;;;;;5025861;28;20230;-71
2023/10/16 05:04:59;;;;;;;16.67;11.17;;;3.10;99.90;;;;;;5014154;28;20176;-70
2023/10/16 05:10:12;;;;;;;18.10;10.70;;;3.00;99.90;;;;;;5014372;28;20375;-71
2023/10/16 05:18:11;;;;;;;17.70;11.00;;;3.20;99.90;;;;;;5015066;28;20698;-71
2023/10/16 05:21:15;;;;;;;22.23;11.20;;;3.20;99.90;;;;;;5014131;28;20222;-71
2023/10/16 06:15:51;;;;;;;16.87;11.70;;;3.40;99.90;;;;;;5052366;28;20688;-72
2023/10/16 06:18:17;;;;;;;15.93;10.33;;;3.50;99.90;;;;;;5052278;28;20230;-72
2023/10/16 06:20:45;;;;;;;14.00;10.70;;;3.50;99.90;;;;;;5052208;28;20183;-72
2023/10/16 06:23:11;;;;;;;16.50;11.73;;;3.50;99.90;;;;;;5052456;28;20174;-72
2023/10/16 06:25:37;;;;;;;12.43;10.30;;;3.60;99.90;;;;;;5052275;28;20654;-72
2023/10/16 06:28:10;;;;;;;11.90;10.47;;;3.60;99.90;;;;;;5049500;28;20626;-72
2023/10/16 06:30:37;;;;;;;17.67;11.50;;;3.70;99.90;;;;;;5030860;28;20555;-72
2023/10/16 06:33:05;;;;;;;13.13;10.67;;;3.80;99.90;;;;;;5031613;28;20207;-72
2023/10/16 06:35:30;;;;;;;16.57;10.50;;;3.90;99.90;;;;;;5031963;28;20172;-73
2023/10/16 06:37:56;;;;;;;13.60;11.00;;;4.00;99.90;;;;;;5030796;28;20207;-72
2023/10/16 06:40:24;;;;;;;15.13;10.57;;;4.00;99.90;;;;;;5031147;28;20207;-73
2023/10/16 06:43:09;;;;;;;23.07;12.80;;;4.00;99.90;;;;;;5031722;28;20179;-72
2023/10/16 06:45:57;;;;;;;16.27;12.03;;;4.10;99.90;;;;;;5031884;28;20186;-72
2023/10/16 06:48:27;;;;;;;15.43;10.57;;;4.20;99.90;;;;;;5031159;28;20194;-72
2023/10/16 06:50:53;;;;;;;16.20;11.70;;;4.20;99.90;;;;;;5031754;28;20288;-72
2023/10/16 06:53:22;;;;;;;14.50;11.80;;;4.30;99.90;;;;;;5031677;28;20258;-72
2023/10/16 06:55:49;;;;;;;12.33;10.50;;;4.40;99.90;;;;;;5029904;28;20179;-72
2023/10/16 06:58:15;;;;;;;12.27;9.90;;;4.50;99.90;;;;;;5019433;28;20303;-72
2023/10/16 07:00:47;;;;;;;19.77;10.60;;;4.60;99.90;;;;;;5011457;28;20216;-72
2023/10/16 07:03:13;;;;;;;15.13;10.03;;;4.70;99.90;;;;;;5011836;28;20581;-72
2023/10/16 07:05:42;;;;;;;12.77;9.67;;;4.80;99.90;;;;;;5015686;28;20203;-72
2023/10/16 07:08:09;;;;;;;15.60;10.37;;;4.90;99.90;;;;;;5020255;28;20183;-72
2023/10/16 07:10:36;;;;;;;13.87;9.70;;;5.00;99.90;;;;;;5030160;28;20199;-71
2023/10/16 07:13:06;;;;;;;15.87;10.00;;;5.10;99.90;;;;;;5031138;28;20171;-72
2023/10/16 07:15:31;;;;;;;17.53;9.90;;;5.20;99.90;;;;;;5031330;28;20175;-72
2023/10/16 07:18:04;;;;;;;13.90;10.67;;;5.30;99.90;;;;;;5031210;28;20675;-72
2023/10/16 07:20:35;;;;;;;17.50;10.40;;;5.60;99.90;;;;;;5031285;28;20194;-72
2023/10/16 07:23:02;;;;;;;12.53;9.27;;;5.80;99.90;;;;;;5028093;28;20242;-72
2023/10/16 07:25:47;;;;;;;12.27;9.87;;;6.20;99.90;;;;;;5030961;28;20171;-72
2023/10/16 07:28:15;;;;;;;15.70;11.60;;;6.40;99.90;;;;;;5031163;28;20169;-72
2023/10/16 07:30:44;;;;;;;16.50;9.47;;;6.50;99.90;;;;;;5031337;28;20199;-72
2023/10/16 07:33:16;;;;;;;13.00;8.77;;;6.50;99.90;;;;;;5013527;28;20182;-72
2023/10/16 07:35:45;;;;;;;13.50;9.50;;;6.50;99.90;;;;;;5016797;28;20184;-72
2023/10/16 07:38:12;;;;;;;17.13;8.90;;;6.50;99.90;;;;;;5029632;28;20658;-72
2023/10/16 07:40:38;;;;;;;14.63;9.77;;;6.50;99.90;;;;;;5030532;28;20713;-72
2023/10/16 07:43:05;;;;;;;11.97;8.97;;;6.60;99.90;;;;;;5030869;28;20171;-72
2023/10/16 07:45:32;;;;;;;11.87;8.73;;;6.50;99.90;;;;;;5031126;28;20221;-72
2023/10/16 07:48:07;;;;;;;10.90;8.83;;;6.60;99.90;;;;;;5031184;28;20182;-72
2023/10/16 07:50:41;;;;;;;10.93;7.77;;;6.60;99.90;;;;;;5024687;28;20199;-72
2023/10/16 07:53:08;;;;;;;11.23;8.47;;;6.70;99.90;;;;;;5011097;28;20172;-72
2023/10/16 07:55:40;;;;;;;10.40;8.63;;;6.90;99.90;;;;;;5011194;28;20490;-72
2023/10/16 07:58:15;;;;;;;13.93;8.53;;;6.90;99.90;;;;;;5010812;28;20305;-72
2023/10/16 08:03:26;;;;;;;15.13;8.97;;;7.20;99.90;;;;;;5018966;28;20433;-73
2023/10/16 08:05:52;;;;;;;11.93;8.57;;;7.30;99.90;;;;;;5033520;28;20176;-72
2023/10/16 08:08:25;;;;;;;10.53;8.67;;;7.50;99.90;;;;;;5034738;28;20203;-72
2023/10/16 08:10:52;;;;;;;14.17;9.10;;;7.70;99.90;;;;;;5034769;28;20191;-72
2023/10/16 08:13:24;;;;;;;10.53;8.60;;;8.10;99.90;;;;;;5034411;28;20183;-72
2023/10/16 08:15:51;;;;;;;11.70;8.33;;;8.30;99.90;;;;;;5034724;28;20215;-73
2023/10/16 08:18:25;;;;;;;15.67;8.40;;;8.70;99.90;;;;;;5033087;28;20682;-71
2023/10/16 08:21:08;;;;;;;8.23;7.40;;;8.90;99.90;;;;;;5034498;28;20187;-72
2023/10/16 08:23:38;;;;;;;11.33;7.33;;;9.10;99.90;;;;;;5033298;28;20207;-72
2023/10/16 08:26:14;;;;;;;7.77;6.90;;;9.20;99.90;;;;;;5034397;28;20632;-72
2023/10/16 08:28:45;;;;;;;11.13;7.37;;;9.50;99.90;;;;;;5034161;28;20206;-72
2023/10/16 08:31:23;;;;;;;10.77;7.50;;;9.90;99.90;;;;;;5020381;28;20259;-72
2023/10/16 08:33:54;;;;;;;10.70;6.73;;;10.30;99.90;;;;;;5014463;28;20522;-72
2023/10/16 08:36:21;;;;;;;12.40;6.93;;;10.80;99.90;;;;;;5014553;28;20195;-73
2023/10/16 08:38:53;;;;;;;8.90;6.30;;;11.30;99.90;;;;;;5014378;28;20422;-73
2023/10/16 08:41:42;;;;;;;12.53;6.17;;;11.50;99.90;;;;;;5014249;28;20223;-73
2023/10/16 08:44:17;;;;;;;10.87;6.30;;;12.20;99.90;;;;;;5014204;28;20651;-72
2023/10/16 08:46:53;;;;;;;10.97;5.77;;;12.60;99.90;;;;;;5013406;28;20183;-73
2023/10/16 08:49:22;;;;;;;6.53;5.83;;;12.90;99.90;;;;;;5013957;28;20187;-72
2023/10/16 08:51:54;;;;;;;11.30;6.07;;;13.20;99.90;;;;;;5014507;28;20199;-73
2023/10/16 08:57:07;;;;;;;8.03;6.60;;;13.40;99.90;;;;;;5017737;28;20329;-72
2023/10/16 08:59:34;;;;;;;8.20;6.40;;;13.40;99.90;;;;;;5034137;28;20666;-73
2023/10/16 09:02:01;;;;;;;10.50;6.87;;;13.60;99.90;;;;;;5033906;28;20170;-73
2023/10/16 09:04:27;;;;;;;10.63;6.77;;;13.70;99.90;;;;;;5033759;28;20164;-73
2023/10/16 09:06:54;;;;;;;9.50;6.90;;;14.00;99.90;;;;;;5033750;28;20168;-73
2023/10/16 09:09:20;;;;;;;10.13;7.47;;;14.10;99.90;;;;;;5033783;28;20180;-73
2023/10/16 09:11:50;;;;;;;10.77;7.93;;;14.20;99.90;;;;;;5029729;28;20191;-73
2023/10/16 09:14:20;;;;;;;8.50;7.60;;;14.30;99.90;;;;;;5013707;28;20176;-73
2023/10/16 09:16:55;;;;;;;13.33;8.10;;;14.30;99.90;;;;;;5013937;28;20203;-73
2023/10/16 09:19:31;;;;;;;11.77;8.90;;;14.30;99.90;;;;;;5017756;28;20270;-73
2023/10/16 09:21:57;;;;;;;10.87;8.07;;;14.20;99.90;;;;;;5035621;28;20171;-73
2023/10/16 09:24:24;;;;;;;9.80;8.77;;;14.00;99.90;;;;;;5033139;28;20508;-72
2023/10/16 09:26:54;;;;;;;10.80;9.00;;;13.90;99.90;;;;;;5015981;28;20184;-73
2023/10/16 09:29:27;;;;;;;11.80;9.23;;;13.80;99.90;;;;;;5029598;28;20202;-73
2023/10/16 09:31:53;;;;;;;11.40;9.27;;;13.80;99.90;;;;;;5033819;28;20172;-73
2023/10/16 09:34:22;;;;;;;13.30;9.50;;;13.90;99.90;;;;;;5032946;28;20548;-72
2023/10/16 09:39:40;;;;;;;14.53;10.43;;;14.00;99.90;;;;;;5017836;28;20218;-73
2023/10/16 09:42:11;;;;;;;15.13;10.87;;;14.00;99.90;;;;;;5013303;28;20248;-72
2023/10/16 09:44:44;;;;;;;15.93;10.40;;;14.00;99.90;;;;;;5023502;28;20178;-72
2023/10/16 09:47:25;;;;;;;14.07;10.90;;;13.80;99.90;;;;;;5052697;28;20170;-72
2023/10/16 09:49:56;;;;;;;20.07;12.57;;;13.70;99.90;;;;;;5039633;28;20199;-72
2023/10/16 09:52:23;;;;;;;22.23;11.07;;;13.50;99.90;;;;;;5032693;28;20725;-72
2023/10/16 09:54:51;;;;;;;17.40;11.33;;;13.20;99.90;;;;;;5032626;28;20184;-72
2023/10/16 09:57:27;;;;;;;17.23;12.03;;;13.00;99.90;;;;;;5032891;28;20659;-72
2023/10/16 09:59:54;;;;;;;20.40;12.80;;;12.90;99.90;;;;;;5030277;28;21405;-72
2023/10/16 10:02:25;;;;;;;19.70;14.57;;;13.10;99.90;;;;;;5017735;28;20206;-72
2023/10/16 10:05:08;;;;;;;22.00;13.67;;;13.10;99.90;;;;;;5036452;28;20237;-72
2023/10/16 10:07:47;;;;;;;19.40;13.77;;;13.20;99.90;;;;;;5020255;28;20182;-72
2023/10/16 10:13:10;;;;;;;16.93;12.77;;;13.40;99.90;;;;;;5015265;28;20550;-72
2023/10/16 10:15:44;;;;;;;18.07;12.03;;;13.50;99.90;;;;;;5013557;28;20617;-72
2023/10/16 10:20:58;;;;;;;17.90;11.60;;;13.80;99.90;;;;;;5013125;28;20207;-72
2023/10/16 10:23:25;;;;;;;17.87;13.00;;;13.90;99.90;;;;;;5033019;28;20202;-72
2023/10/16 10:25:54;;;;;;;18.73;13.20;;;14.00;99.90;;;;;;5024268;28;20326;-72
2023/10/16 10:28:28;;;;;;;18.03;13.17;;;13.80;99.90;;;;;;5026133;28;20183;-72
2023/10/16 10:31:02;;;;;;;17.40;12.17;;;13.70;99.90;;;;;;5019859;28;20203;-72
2023/10/16 10:33:42;;;;;;;20.93;12.37;;;13.60;99.90;;;;;;5048820;28;20177;-72
2023/10/16 10:36:27;;;;;;;14.90;11.37;;;13.60;99.90;;;;;;5042973;28;20210;-72
2023/10/16 10:39:21;;;;;;;15.83;11.73;;;13.60;99.90;;;;;;5031769;28;20206;-72
2023/10/16 10:41:48;;;;;;;14.70;11.27;;;13.60;99.90;;;;;;5018706;28;20184;-72
2023/10/16 10:44:30;;;;;;;14.67;10.67;;;13.90;99.90;;;;;;5068308;28;20945;-72
2023/10/16 10:46:55;;;;;;;14.77;11.50;;;14.00;99.90;;;;;;5068053;28;20166;-71
2023/10/16 10:49:35;;;;;;;12.73;10.13;;;14.10;99.90;;;;;;5065663;28;20904;-72
2023/10/16 10:52:05;;;;;;;20.63;11.47;;;14.10;99.90;;;;;;5048130;28;20170;-72
2023/10/16 10:54:31;;;;;;;15.83;9.73;;;14.10;99.90;;;;;;5048098;28;20163;-73
2023/10/16 10:57:07;;;;;;;11.97;9.70;;;14.10;99.90;;;;;;5047384;28;20167;-72
2023/10/16 10:59:47;;;;;;;13.37;9.37;;;14.10;99.90;;;;;;5048277;28;20677;-71
2023/10/16 11:04:42;;;;;;;13.87;9.47;;;13.90;99.90;;;;;;5048184;28;20174;-71
2023/10/16 11:08:17;;;;;;;12.57;7.87;;;14.00;99.90;;;;;;5047849;28;20222;-71
2023/10/16 11:10:03;;;;;;;11.03;8.23;;;14.30;99.90;;;;;;5041862;28;20682;-73
2023/10/16 11:12:30;;;;;;;12.10;8.73;;;14.60;99.90;;;;;;5047576;28;20543;-72
2023/10/16 11:14:56;;;;;;;10.50;8.27;;;14.60;99.90;;;;;;5047407;28;20182;-71
2023/10/16 11:17:32;;;;;;;9.63;7.87;;;14.50;99.90;;;;;;5047530;28;20666;-72
2023/10/16 11:20:11;;;;;;;11.13;8.57;;;14.60;99.90;;;;;;5047545;28;20779;-72
2023/10/16 11:22:43;;;;;;;13.43;9.30;;;14.80;99.90;;;;;;5047411;28;20206;-71
2023/10/16 11:25:13;;;;;;;12.17;8.50;;;14.70;99.90;;;;;;5046799;28;20638;-71
2023/10/16 11:27:42;;;;;;;9.43;7.83;;;14.80;99.90;;;;;;5046272;28;20167;-72
2023/10/16 11:30:11;;;;;;;11.70;7.90;;;15.00;99.90;;;;;;5046504;28;20195;-71
2023/10/16 11:32:45;;;;;;;11.37;8.13;;;15.10;99.90;;;;;;5048087;28;20167;-71
2023/10/16 11:35:15;;;;;;;12.57;8.43;;;15.30;99.90;;;;;;5047188;28;20209;-71
2023/10/16 11:37:50;;;;;;;10.97;7.60;;;15.50;99.90;;;;;;5047118;28;20178;-72
2023/10/16 11:40:19;;;;;;;14.63;8.20;;;15.60;99.90;;;;;;5046024;28;20208;-72
2023/10/16 11:42:48;;;;;;;9.67;7.63;;;15.70;99.90;;;;;;5047154;28;20267;-71
2023/10/16 11:45:20;;;;;;;9.20;7.67;;;16.00;99.90;;;;;;5046749;28;20169;-72
2023/10/16 11:48:18;;;;;;;8.23;6.73;;;16.10;99.90;;;;;;5047132;28;20704;-71
2023/10/16 11:50:39;;;;;;;9.20;6.40;;;16.10;99.90;;;;;;5047210;28;20232;-71
2023/10/16 11:53:07;;;;;;;10.53;5.93;;;16.30;99.90;;;;;;5045556;28;20274;-71
2023/10/16 11:55:37;;;;;;;8.17;5.40;;;16.40;99.90;;;;;;5034751;28;20191;-71
2023/10/16 11:58:03;;;;;;;8.63;5.70;;;16.40;99.90;;;;;;5033600;28;20214;-71
2023/10/16 12:00:31;;;;;;;10.93;6.07;;;16.30;99.90;;;;;;5033808;28;20714;-72
2023/10/16 12:02:56;;;;;;;9.93;6.23;;;16.20;99.90;;;;;;5034021;28;20195;-72
2023/10/16 12:05:27;;;;;;;13.60;6.83;;;16.10;99.90;;;;;;5033919;28;20168;-72
2023/10/16 12:07:56;;;;;;;11.40;7.00;;;15.90;99.90;;;;;;5033899;28;20197;-71
2023/10/16 12:10:22;;;;;;;10.47;6.13;;;15.90;99.90;;;;;;5033465;28;20220;-71
2023/10/16 12:12:49;;;;;;;8.83;6.03;;;15.80;99.90;;;;;;5013881;28;20174;-72
2023/10/16 12:15:15;;;;;;;10.00;6.27;;;15.80;99.90;;;;;;5013323;28;20617;-71
2023/10/16 12:17:43;;;;;;;8.27;5.60;;;15.90;99.90;;;;;;5012583;28;20465;-71
2023/10/16 12:20:10;;;;;;;10.37;6.80;;;15.80;99.90;;;;;;5013712;28;20270;-72
2023/10/16 12:22:39;;;;;;;8.30;6.17;;;15.80;99.90;;;;;;5013593;28;20611;-72
2023/10/16 12:25:09;;;;;;;9.40;6.30;;;15.90;99.90;;;;;;5013660;28;20168;-72
2023/10/16 12:27:36;;;;;;;9.03;5.77;;;16.00;99.90;;;;;;5033699;28;20180;-72
2023/10/16 12:30:03;;;;;;;11.90;6.70;;;15.90;99.90;;;;;;5033182;28;20930;-71
2023/10/16 12:32:30;;;;;;;7.97;6.57;;;15.80;99.90;;;;;;5033103;28;20175;-72
2023/10/16 12:35:00;;;;;;;13.67;7.17;;;15.70;99.90;;;;;;5013434;28;20679;-73
2023/10/16 12:37:27;;;;;;;11.27;7.10;;;15.60;99.90;;;;;;5032157;28;20191;-71
2023/10/16 12:39:54;;;;;;;12.80;7.43;;;15.60;99.90;;;;;;5031867;28;20203;-71
2023/10/16 12:42:20;;;;;;;12.30;8.03;;;15.70;99.90;;;;;;5031508;28;20215;-73
2023/10/16 12:44:45;;;;;;;9.73;7.43;;;15.70;99.90;;;;;;5032593;28;20185;-71
2023/10/16 12:47:14;;;;;;;11.57;7.60;;;15.70;99.90;;;;;;5032848;28;20233;-71
2023/10/16 12:49:40;;;;;;;9.70;7.70;;;15.80;99.90;;;;;;5032595;28;20623;-72
2023/10/16 12:52:07;;;;;;;10.40;7.60;;;15.70;99.90;;;;;;5031299;28;20214;-71
2023/10/16 12:54:32;;;;;;;9.63;7.37;;;15.70;99.90;;;;;;5032758;28;20534;-71
2023/10/16 12:56:59;;;;;;;9.63;7.10;;;15.70;99.90;;;;;;5032547;28;20171;-71
2023/10/16 12:59:27;;;;;;;12.03;7.40;;;15.70;99.90;;;;;;5032744;28;20191;-72
2023/10/16 13:01:53;;;;;;;11.47;7.17;;;15.80;99.90;;;;;;5032573;28;20180;-71
2023/10/16 13:04:19;;;;;;;11.43;7.37;;;15.90;99.90;;;;;;5031924;28;20268;-72
2023/10/16 13:06:45;;;;;;;8.43;6.63;;;15.80;99.90;;;;;;5031179;28;20176;-72
2023/10/16 13:09:18;;;;;;;8.80;7.07;;;15.80;99.90;;;;;;5030098;28;20179;-72
2023/10/16 13:11:45;;;;;;;8.70;6.40;;;15.70;99.90;;;;;;5031371;28;20171;-71
2023/10/16 13:14:13;;;;;;;7.23;6.53;;;15.70;99.90;;;;;;5030642;28;20182;-71
2023/10/16 13:16:46;;;;;;;8.30;6.47;;;15.70;99.90;;;;;;5032211;28;20191;-71
2023/10/16 13:19:15;;;;;;;7.30;6.47;;;15.60;99.90;;;;;;5032222;28;20634;-71
2023/10/16 13:21:41;;;;;;;7.63;5.70;;;15.70;99.90;;;;;;5032222;28;20174;-71
2023/10/16 13:24:13;;;;;;;8.00;5.90;;;15.60;99.90;;;;;;5032115;28;20610;-72
2023/10/16 13:26:39;;;;;;;9.13;6.27;;;15.50;99.90;;;;;;5032462;28;20175;-71
2023/10/16 13:29:11;;;;;;;7.70;6.40;;;15.50;99.90;;;;;;5031975;28;20171;-71
2023/10/16 13:31:40;;;;;;;8.87;5.77;;;15.40;99.90;;;;;;5031950;28;20179;-71
2023/10/16 13:34:10;;;;;;;8.60;7.47;;;15.20;99.90;;;;;;5031618;28;20775;-72
2023/10/16 13:36:37;;;;;;;7.67;5.37;;;15.10;99.90;;;;;;5031850;28;20183;-71
2023/10/16 13:39:08;;;;;;;7.30;6.07;;;15.10;99.90;;;;;;5031150;28;20198;-71
2023/10/16 13:41:38;;;;;;;6.33;5.30;;;15.00;99.90;;;;;;5032195;28;20175;-72
2023/10/16 13:44:04;;;;;;;7.63;6.07;;;15.10;99.90;;;;;;5030669;28;20211;-72
2023/10/16 13:46:29;;;;;;;8.97;5.80;;;15.20;99.90;;;;;;5031897;28;20172;-73
2023/10/16 13:48:57;;;;;;;8.20;5.73;;;15.20;99.90;;;;;;5029046;28;20167;-72
2023/10/16 13:51:23;;;;;;;7.33;5.37;;;15.20;99.90;;;;;;5031329;28;20749;-72
2023/10/16 13:53:48;;;;;;;6.70;5.57;;;15.10;99.90;;;;;;5031526;28;20167;-71
2023/10/16 13:56:16;;;;;;;9.37;5.57;;;15.00;99.90;;;;;;5031439;28;20221;-71
2023/10/16 13:58:45;;;;;;;6.57;5.40;;;15.00;99.90;;;;;;5031592;28;20183;-72
2023/10/16 14:01:14;;;;;;;7.40;5.33;;;15.10;99.90;;;;;;5030788;28;20211;-72
2023/10/16 14:03:40;;;;;;;8.93;5.20;;;15.00;99.90;;;;;;5030966;28;20736;-72
2023/10/16 14:06:12;;;;;;;8.20;5.00;;;15.10;99.90;;;;;;5030057;28;20171;-72
2023/10/16 14:08:41;;;;;;;8.73;5.10;;;15.10;99.90;;;;;;5031176;28;20168;-72
2023/10/16 14:11:11;;;;;;;7.60;4.80;;;15.20;99.90;;;;;;5030818;28;20202;-72
2023/10/16 14:13:39;;;;;;;8.10;5.50;;;15.30;99.90;;;;;;5030196;28;20179;-72
2023/10/16 14:16:17;;;;;;;6.60;5.30;;;15.40;99.90;;;;;;5028098;28;20555;-71
2023/10/16 14:18:44;;;;;;;7.97;5.70;;;15.30;99.90;;;;;;5031002;28;20175;-71
2023/10/16 14:21:11;;;;;;;8.67;5.80;;;15.10;99.90;;;;;;5029442;28;20229;-71
2023/10/16 14:23:40;;;;;;;7.13;5.53;;;15.00;99.90;;;;;;5031176;28;20607;-71
2023/10/16 14:26:21;;;;;;;6.50;5.70;;;15.00;99.90;;;;;;5030758;28;20750;-71
2023/10/16 14:28:51;;;;;;;7.77;5.80;;;15.00;99.90;;;;;;5031293;28;20624;-71
2023/10/16 14:31:20;;;;;;;7.10;5.53;;;15.10;99.90;;;;;;5030484;28;20244;-72